Time;durP1;ratioP1;P1;durP2;ratioP2;P2;SDS_P1;SDS_P2;PMS_P1;PMS_P2;Temp;Humidity;BMP_temperature;BMP_pressure;BME280_temperature;BME280_humidity;BME280_pressure;Samples;Min_cycle;Max_cycle;Signal;HPM_P1;HPM_P2
2021/01/25 00:01:42;;;;;;;15.90;14.30;;;0.20;99.90;;;;;;6124943;23;20753;-79
2021/01/25 00:04:09;;;;;;;15.60;14.20;;;0.30;99.90;;;;;;6123682;23;20420;-79
2021/01/25 00:06:35;;;;;;;15.63;14.13;;;0.30;99.90;;;;;;6123636;23;20471;-79
2021/01/25 00:09:01;;;;;;;15.93;14.43;;;0.30;99.90;;;;;;6123171;23;20417;-80
2021/01/25 00:11:28;;;;;;;15.33;13.83;;;0.20;99.90;;;;;;6123380;23;20448;-79
2021/01/25 00:13:54;;;;;;;14.57;13.17;;;0.00;99.90;;;;;;6123584;23;20412;-79
2021/01/25 00:16:20;;;;;;;14.83;13.33;;;0.00;99.90;;;;;;6123786;23;20448;-79
2021/01/25 00:18:47;;;;;;;14.93;13.50;;;-0.10;99.90;;;;;;6123264;23;20558;-79
2021/01/25 00:21:14;;;;;;;14.63;13.13;;;-0.10;99.90;;;;;;6123649;23;20808;-79
2021/01/25 00:23:40;;;;;;;14.60;13.27;;;-0.10;99.90;;;;;;6122908;23;20452;-79
2021/01/25 00:26:06;;;;;;;14.67;13.17;;;-0.20;99.90;;;;;;6124775;23;20472;-79
2021/01/25 00:28:33;;;;;;;14.07;12.70;;;-0.20;99.90;;;;;;6123343;23;20509;-80
2021/01/25 00:30:59;;;;;;;15.03;13.60;;;-0.30;99.90;;;;;;6125158;23;20381;-79
2021/01/25 00:33:25;;;;;;;14.87;13.53;;;-0.40;99.90;;;;;;6123581;23;20472;-79
2021/01/25 00:35:52;;;;;;;15.63;13.97;;;-0.40;99.90;;;;;;6124947;23;20794;-79
2021/01/25 00:38:19;;;;;;;14.93;13.53;;;-0.50;99.90;;;;;;6122964;23;20998;-79
2021/01/25 00:40:46;;;;;;;15.03;13.70;;;-0.50;99.90;;;;;;6124761;23;20397;-80
2021/01/25 00:43:12;;;;;;;15.70;14.20;;;-0.60;99.90;;;;;;6123162;23;20440;-79
2021/01/25 00:45:38;;;;;;;15.40;13.90;;;-0.60;99.90;;;;;;6123162;23;20436;-79
2021/01/25 00:48:05;;;;;;;15.87;14.27;;;-0.50;99.90;;;;;;6123337;23;20417;-79
2021/01/25 00:50:32;;;;;;;14.33;13.10;;;-0.60;99.90;;;;;;6123023;23;20802;-79
2021/01/25 00:52:58;;;;;;;16.93;15.17;;;-0.60;99.90;;;;;;6123429;23;20516;-79
2021/01/25 00:55:29;;;;;;;16.77;15.10;;;-0.60;99.90;;;;;;6123230;23;20421;-79
2021/01/25 00:57:56;;;;;;;16.50;14.90;;;-0.60;99.90;;;;;;6123193;23;20421;-79
2021/01/25 01:00:22;;;;;;;17.03;14.60;;;-0.50;99.90;;;;;;6122852;23;20417;-79
2021/01/25 01:02:49;;;;;;;16.70;15.07;;;-0.50;99.90;;;;;;6124713;23;20920;-80
2021/01/25 01:05:15;;;;;;;17.03;14.90;;;-0.40;99.90;;;;;;6123082;23;20433;-80
2021/01/25 01:07:41;;;;;;;15.93;14.53;;;-0.50;99.90;;;;;;6123229;23;20417;-80
2021/01/25 01:10:08;;;;;;;16.20;14.50;;;-0.40;99.90;;;;;;6122771;23;20413;-80
2021/01/25 01:12:35;;;;;;;16.57;14.87;;;-0.50;99.90;;;;;;6124832;23;20410;-79
2021/01/25 01:15:09;;;;;;;17.27;15.57;;;-0.50;99.90;;;;;;6124651;23;20385;-79
2021/01/25 01:17:36;;;;;;;16.27;14.70;;;-0.50;99.90;;;;;;6099633;23;20410;-79
2021/01/25 01:20:03;;;;;;;16.13;14.63;;;-0.40;99.90;;;;;;6124409;23;20444;-79
2021/01/25 01:22:29;;;;;;;16.40;14.80;;;-0.40;99.90;;;;;;6122847;23;20453;-79
2021/01/25 01:24:55;;;;;;;16.17;14.73;;;-0.40;99.90;;;;;;6124708;23;20389;-79
2021/01/25 01:27:22;;;;;;;16.63;15.03;;;-0.50;99.90;;;;;;6123160;23;20421;-79
2021/01/25 01:29:49;;;;;;;17.03;15.30;;;-0.50;99.90;;;;;;6122936;23;20897;-80
2021/01/25 01:32:15;;;;;;;16.73;14.50;;;-0.50;99.90;;;;;;6123124;23;20433;-79
2021/01/25 01:34:41;;;;;;;17.07;15.40;;;-0.50;99.90;;;;;;6124658;23;20421;-79
2021/01/25 01:37:07;;;;;;;16.23;14.70;;;-0.50;99.90;;;;;;6125006;23;20904;-79
2021/01/25 01:39:34;;;;;;;15.47;13.93;;;-0.50;99.90;;;;;;6126257;23;20389;-79
2021/01/25 01:42:00;;;;;;;17.20;15.40;;;-0.40;99.90;;;;;;6124569;23;20456;-78
2021/01/25 01:44:26;;;;;;;17.63;15.73;;;-0.40;99.90;;;;;;6125148;23;20409;-79
2021/01/25 01:46:54;;;;;;;15.83;14.23;;;-0.40;99.90;;;;;;6126306;23;20838;-79
2021/01/25 01:49:20;;;;;;;17.00;15.00;;;-0.40;99.90;;;;;;6126107;23;20385;-79
2021/01/25 01:51:47;;;;;;;16.70;14.97;;;-0.40;99.90;;;;;;6124814;23;20441;-79
2021/01/25 01:54:14;;;;;;;16.97;15.17;;;-0.40;99.90;;;;;;6124879;23;20412;-79
2021/01/25 01:56:41;;;;;;;17.23;15.53;;;-0.30;99.90;;;;;;6126294;23;20394;-80
2021/01/25 01:59:07;;;;;;;16.80;15.23;;;-0.30;99.90;;;;;;6124436;23;20401;-79
2021/01/25 02:01:33;;;;;;;17.40;15.40;;;-0.30;99.90;;;;;;6124572;23;20966;-78
2021/01/25 02:04:06;;;;;;;16.73;15.03;;;-0.30;99.90;;;;;;6124895;23;20405;-80
2021/01/25 02:06:33;;;;;;;16.93;15.23;;;-0.30;99.90;;;;;;6124711;23;20448;-79
2021/01/25 02:09:03;;;;;;;17.30;15.33;;;-0.20;99.90;;;;;;6128421;23;20390;-81
2021/01/25 02:11:32;;;;;;;17.43;15.67;;;-0.20;99.90;;;;;;6129108;23;20441;-79
2021/01/25 02:14:00;;;;;;;16.27;14.87;;;-0.20;99.90;;;;;;6124549;23;20428;-79
2021/01/25 02:16:26;;;;;;;17.93;15.80;;;-0.20;99.90;;;;;;6124710;23;20468;-80
2021/01/25 02:18:52;;;;;;;15.17;13.77;;;-0.20;99.90;;;;;;6127238;23;20726;-79
2021/01/25 02:21:21;;;;;;;15.47;13.97;;;-0.20;99.90;;;;;;6126324;23;20420;-79
2021/01/25 02:24:05;;;;;;;16.30;14.83;;;-0.10;99.90;;;;;;6124629;23;20440;-79
2021/01/25 02:26:42;;;;;;;14.83;13.57;;;-0.10;99.90;;;;;;6124500;23;20504;-79
2021/01/25 02:29:09;;;;;;;15.10;13.80;;;-0.10;99.90;;;;;;6124333;23;20880;-79
2021/01/25 02:31:37;;;;;;;15.80;14.30;;;0.00;99.90;;;;;;6124831;23;20829;-79
2021/01/25 02:34:04;;;;;;;16.00;14.57;;;0.00;99.90;;;;;;6124170;23;20420;-79
2021/01/25 02:36:32;;;;;;;15.30;13.90;;;0.00;99.90;;;;;;6126073;23;20386;-79
2021/01/25 02:39:01;;;;;;;15.53;14.10;;;0.00;99.90;;;;;;6124260;23;20420;-80
2021/01/25 02:41:29;;;;;;;15.70;14.30;;;0.00;99.90;;;;;;6125795;23;20421;-79
2021/01/25 02:43:58;;;;;;;15.30;13.90;;;0.10;99.90;;;;;;6125476;23;20437;-79
2021/01/25 02:46:26;;;;;;;14.97;13.57;;;0.10;99.90;;;;;;6125845;23;20872;-80
2021/01/25 02:48:53;;;;;;;15.30;13.93;;;0.10;99.90;;;;;;6125589;23;20398;-79
2021/01/25 02:51:19;;;;;;;14.80;13.50;;;0.10;99.90;;;;;;6125581;23;20412;-79
2021/01/25 02:53:46;;;;;;;14.20;13.07;;;0.10;99.90;;;;;;6124286;23;20417;-79
2021/01/25 02:56:13;;;;;;;14.57;13.40;;;0.20;99.90;;;;;;6124172;23;20418;-79
2021/01/25 02:58:39;;;;;;;16.13;14.63;;;0.20;99.90;;;;;;6124034;23;20425;-80
2021/01/25 03:01:06;;;;;;;16.00;14.50;;;0.30;99.90;;;;;;6125507;23;20389;-80
2021/01/25 03:03:34;;;;;;;14.93;13.67;;;0.30;99.90;;;;;;6124019;23;20441;-80
2021/01/25 03:06:01;;;;;;;15.63;14.23;;;0.30;99.90;;;;;;6123968;23;20468;-80
2021/01/25 03:08:28;;;;;;;16.23;14.90;;;0.30;99.90;;;;;;6125232;23;20389;-80
2021/01/25 03:10:55;;;;;;;16.17;14.77;;;0.30;99.90;;;;;;6124141;23;20472;-79
2021/01/25 03:13:26;;;;;;;15.13;13.83;;;0.30;99.90;;;;;;6123839;23;20797;-80
2021/01/25 03:15:54;;;;;;;15.83;14.33;;;0.30;99.90;;;;;;6125675;23;20380;-80
2021/01/25 03:18:21;;;;;;;15.07;13.87;;;0.40;99.90;;;;;;6125120;23;20398;-80
2021/01/25 03:20:48;;;;;;;16.30;14.90;;;0.40;99.90;;;;;;6123895;23;20413;-79
2021/01/25 03:23:15;;;;;;;15.97;14.60;;;0.40;99.90;;;;;;6123848;23;20469;-79
2021/01/25 03:25:41;;;;;;;15.67;14.17;;;0.40;99.90;;;;;;6125508;23;20397;-79
2021/01/25 03:28:07;;;;;;;15.30;13.90;;;0.40;99.90;;;;;;6124345;23;20762;-79
2021/01/25 03:30:34;;;;;;;15.47;14.17;;;0.40;99.90;;;;;;6125359;23;20449;-79
2021/01/25 03:33:01;;;;;;;14.07;12.90;;;0.40;99.90;;;;;;6123814;23;20960;-79
2021/01/25 03:35:27;;;;;;;14.37;13.00;;;0.40;99.90;;;;;;6123738;23;20872;-80
2021/01/25 03:37:54;;;;;;;14.70;13.50;;;0.30;99.90;;;;;;6123989;23;20468;-79
2021/01/25 03:40:20;;;;;;;14.83;13.57;;;0.30;99.90;;;;;;6123604;23;20744;-79
2021/01/25 03:42:47;;;;;;;14.60;13.40;;;0.30;99.90;;;;;;6124229;23;20574;-78
2021/01/25 03:45:14;;;;;;;16.10;14.60;;;0.30;99.90;;;;;;6124625;23;20418;-78
2021/01/25 03:47:40;;;;;;;14.97;13.67;;;0.30;99.90;;;;;;6124665;23;20440;-78
2021/01/25 03:50:07;;;;;;;14.53;13.43;;;0.30;99.90;;;;;;6124602;23;20417;-75
2021/01/25 03:52:33;;;;;;;15.17;13.87;;;0.20;99.90;;;;;;6125018;23;20405;-75
2021/01/25 03:55:01;;;;;;;15.47;14.17;;;0.30;99.90;;;;;;6124362;23;20900;-75
2021/01/25 03:57:27;;;;;;;15.90;14.40;;;0.30;99.90;;;;;;6122830;23;20428;-74
2021/01/25 03:59:53;;;;;;;15.87;14.53;;;0.30;99.90;;;;;;6124549;23;20781;-76
2021/01/25 04:02:19;;;;;;;15.30;13.90;;;0.30;99.90;;;;;;6125205;23;20440;-76
2021/01/25 04:04:46;;;;;;;17.40;15.70;;;0.30;99.90;;;;;;6124103;23;20417;-77
2021/01/25 04:07:12;;;;;;;16.83;15.27;;;0.40;99.90;;;;;;6126819;23;20422;-77
2021/01/25 04:09:39;;;;;;;16.93;15.53;;;0.40;99.90;;;;;;6126896;23;20409;-77
2021/01/25 04:12:07;;;;;;;16.67;15.07;;;0.40;99.90;;;;;;6125912;23;20433;-77
2021/01/25 04:14:34;;;;;;;16.20;14.73;;;0.40;99.90;;;;;;6128643;23;20389;-76
2021/01/25 04:17:00;;;;;;;16.27;14.77;;;0.40;99.90;;;;;;6126392;23;20394;-77
2021/01/25 04:19:26;;;;;;;16.80;15.30;;;0.40;99.90;;;;;;6126643;23;20385;-76
2021/01/25 04:21:53;;;;;;;16.33;14.97;;;0.40;99.90;;;;;;6125036;23;20437;-77
2021/01/25 04:24:19;;;;;;;17.10;15.40;;;0.40;99.90;;;;;;6124915;23;20516;-80
2021/01/25 04:26:45;;;;;;;16.10;14.80;;;0.30;99.90;;;;;;6123711;23;20442;-78
2021/01/25 04:29:13;;;;;;;16.97;15.57;;;0.30;99.90;;;;;;6125021;23;20385;-80
2021/01/25 04:31:40;;;;;;;16.37;14.97;;;0.30;99.90;;;;;;6122613;23;20475;-78
2021/01/25 04:34:06;;;;;;;16.60;15.20;;;0.30;99.90;;;;;;6120322;23;20413;-79
2021/01/25 04:36:33;;;;;;;16.23;14.93;;;0.30;99.90;;;;;;6122260;23;20444;-78
2021/01/25 04:38:59;;;;;;;16.10;15.00;;;0.20;99.90;;;;;;6122364;23;20412;-79
2021/01/25 04:41:28;;;;;;;16.47;15.17;;;0.30;99.90;;;;;;6123249;23;20457;-79
2021/01/25 04:43:55;;;;;;;17.27;15.80;;;0.20;99.90;;;;;;6123863;23;20528;-79
2021/01/25 04:46:23;;;;;;;17.17;15.77;;;0.20;99.90;;;;;;6124753;23;20389;-80
2021/01/25 04:48:50;;;;;;;16.67;15.37;;;0.30;99.90;;;;;;6123538;23;20492;-80
2021/01/25 04:51:16;;;;;;;16.70;15.30;;;0.20;99.90;;;;;;6127338;23;20432;-79
2021/01/25 04:53:43;;;;;;;15.83;14.60;;;0.20;99.90;;;;;;6125223;23;20721;-79
2021/01/25 04:56:12;;;;;;;15.33;14.17;;;0.20;99.90;;;;;;6123280;23;20413;-79
2021/01/25 04:58:38;;;;;;;15.53;14.30;;;0.20;99.90;;;;;;6123731;23;20429;-79
2021/01/25 05:01:05;;;;;;;16.53;15.23;;;0.30;99.90;;;;;;6125066;23;20755;-79
2021/01/25 05:03:32;;;;;;;15.57;14.37;;;0.20;99.90;;;;;;6123385;23;20499;-79
2021/01/25 05:05:58;;;;;;;16.33;14.93;;;0.30;99.90;;;;;;6123742;23;20413;-79
2021/01/25 05:08:24;;;;;;;15.93;14.43;;;0.30;99.90;;;;;;6124736;23;20884;-79
2021/01/25 05:10:51;;;;;;;15.23;13.93;;;0.30;99.90;;;;;;6123239;23;20484;-79
2021/01/25 05:13:21;;;;;;;15.87;14.57;;;0.30;99.90;;;;;;6126339;23;20893;-79
2021/01/25 05:15:51;;;;;;;15.97;14.73;;;0.30;99.90;;;;;;6126639;23;20437;-79
2021/01/25 05:18:21;;;;;;;15.47;14.37;;;0.30;99.90;;;;;;6125628;23;20416;-79
2021/01/25 05:20:53;;;;;;;16.53;15.10;;;0.30;99.90;;;;;;6126045;23;20441;-79
2021/01/25 05:23:19;;;;;;;15.53;14.27;;;0.40;99.90;;;;;;6126733;23;20433;-79
2021/01/25 05:25:46;;;;;;;15.83;14.37;;;0.30;99.90;;;;;;6128192;23;20393;-79
2021/01/25 05:28:18;;;;;;;15.93;14.63;;;0.40;99.90;;;;;;6125651;23;20413;-79
2021/01/25 05:30:45;;;;;;;16.40;15.00;;;0.40;99.90;;;;;;6128015;23;20866;-79
2021/01/25 05:33:12;;;;;;;17.07;15.57;;;0.40;99.90;;;;;;6126492;23;20409;-79
2021/01/25 05:35:42;;;;;;;16.17;14.97;;;0.40;99.90;;;;;;6126773;23;20393;-79
2021/01/25 05:38:09;;;;;;;17.03;15.53;;;0.50;99.90;;;;;;6127129;23;20411;-79
2021/01/25 05:40:37;;;;;;;16.60;15.30;;;0.50;99.90;;;;;;6127056;23;20390;-80
2021/01/25 05:43:11;;;;;;;16.67;15.37;;;0.50;99.90;;;;;;6126212;23;20496;-79
2021/01/25 05:45:38;;;;;;;16.87;15.50;;;0.50;99.90;;;;;;6126689;23;20374;-79
2021/01/25 05:48:05;;;;;;;17.23;15.83;;;0.50;99.90;;;;;;6124692;23;20421;-79
2021/01/25 05:50:34;;;;;;;16.77;15.37;;;0.50;99.90;;;;;;6124534;23;20409;-79
2021/01/25 05:53:01;;;;;;;16.90;15.37;;;0.50;99.90;;;;;;6124771;23;20788;-79
2021/01/25 05:55:29;;;;;;;16.90;15.60;;;0.50;99.90;;;;;;6125164;23;20436;-79
2021/01/25 05:57:56;;;;;;;16.60;15.30;;;0.50;99.90;;;;;;6124952;23;20472;-79
2021/01/25 06:00:23;;;;;;;18.67;17.07;;;0.50;99.90;;;;;;6125181;23;20414;-79
2021/01/25 06:02:51;;;;;;;17.03;15.60;;;0.50;99.90;;;;;;6124874;23;20441;-79
2021/01/25 06:05:26;;;;;;;17.37;15.97;;;0.50;99.90;;;;;;6125138;23;20888;-79
2021/01/25 06:07:55;;;;;;;17.33;15.77;;;0.50;99.90;;;;;;6124646;23;20404;-79
2021/01/25 06:10:26;;;;;;;17.00;15.60;;;0.50;99.90;;;;;;6125839;23;20397;-79
2021/01/25 06:13:01;;;;;;;17.73;16.33;;;0.50;99.90;;;;;;6126057;23;20410;-79
2021/01/25 06:15:30;;;;;;;19.10;17.03;;;0.40;99.90;;;;;;6125934;23;20381;-79
2021/01/25 06:17:58;;;;;;;17.27;15.80;;;0.40;99.90;;;;;;6125983;23;20389;-79
2021/01/25 06:20:27;;;;;;;17.13;15.73;;;0.40;99.90;;;;;;6124359;23;20413;-79
2021/01/25 06:22:54;;;;;;;16.93;15.53;;;0.40;99.90;;;;;;6125531;23;20536;-79
2021/01/25 06:25:22;;;;;;;17.43;15.93;;;0.40;99.90;;;;;;6124459;23;20417;-79
2021/01/25 06:27:48;;;;;;;17.57;16.27;;;0.40;99.90;;;;;;6124522;23;20444;-79
2021/01/25 06:30:18;;;;;;;18.77;17.03;;;0.30;99.90;;;;;;6126496;23;20397;-79
2021/01/25 06:32:46;;;;;;;18.63;17.03;;;0.40;99.90;;;;;;6124669;23;20440;-79
2021/01/25 06:35:15;;;;;;;18.53;16.80;;;0.30;99.90;;;;;;6124361;23;20405;-79
2021/01/25 06:37:42;;;;;;;18.93;17.30;;;0.30;99.90;;;;;;6126250;23;20417;-79
2021/01/25 06:40:10;;;;;;;19.23;17.50;;;0.40;99.90;;;;;;6125134;23;20456;-79
2021/01/25 06:42:39;;;;;;;18.40;16.90;;;0.40;99.90;;;;;;6126442;23;20449;-80
2021/01/25 06:45:07;;;;;;;18.70;17.20;;;0.40;99.90;;;;;;6125348;23;20417;-79
2021/01/25 06:47:36;;;;;;;18.30;16.60;;;0.40;99.90;;;;;;6124409;23;20425;-79
2021/01/25 06:50:05;;;;;;;18.97;17.33;;;0.30;99.90;;;;;;6125583;23;20885;-79
2021/01/25 06:52:37;;;;;;;18.10;16.57;;;0.30;99.90;;;;;;6124497;23;20445;-79
2021/01/25 06:55:07;;;;;;;20.37;18.57;;;0.30;99.90;;;;;;6126780;23;20400;-79
2021/01/25 06:57:34;;;;;;;18.67;17.03;;;0.40;99.90;;;;;;6124544;23;20421;-80
2021/01/25 07:00:05;;;;;;;18.10;16.63;;;0.40;99.90;;;;;;6125437;23;20389;-79
2021/01/25 07:02:32;;;;;;;17.73;16.20;;;0.30;99.90;;;;;;6126028;23;20467;-79
2021/01/25 07:04:59;;;;;;;18.00;16.53;;;0.30;99.90;;;;;;6124244;23;20402;-79
2021/01/25 07:07:28;;;;;;;19.37;17.57;;;0.30;99.90;;;;;;6124409;23;20467;-79
2021/01/25 07:09:57;;;;;;;17.83;16.43;;;0.40;99.90;;;;;;6125420;23;20428;-81
2021/01/25 07:12:24;;;;;;;19.10;17.37;;;0.40;99.90;;;;;;6123901;23;20477;-81
2021/01/25 07:14:51;;;;;;;19.63;17.97;;;0.40;99.90;;;;;;6126092;23;20394;-79
2021/01/25 07:17:18;;;;;;;18.30;16.90;;;0.40;99.90;;;;;;6125508;23;21013;-79
2021/01/25 07:19:44;;;;;;;19.13;17.43;;;0.40;99.90;;;;;;6124459;23;20896;-79
2021/01/25 07:22:12;;;;;;;18.93;17.33;;;0.50;99.90;;;;;;6128272;23;20460;-80
2021/01/25 07:24:39;;;;;;;19.70;17.90;;;0.50;99.90;;;;;;6127295;23;20396;-79
2021/01/25 07:27:06;;;;;;;18.77;16.90;;;0.60;99.90;;;;;;6125076;23;20444;-79
2021/01/25 07:29:33;;;;;;;19.13;17.50;;;0.60;99.90;;;;;;6126447;23;20877;-79
2021/01/25 07:32:00;;;;;;;18.53;17.13;;;0.70;99.90;;;;;;6124054;23;20507;-79
2021/01/25 07:34:30;;;;;;;18.33;16.63;;;0.70;99.90;;;;;;6123853;23;20504;-79
2021/01/25 07:36:56;;;;;;;18.77;17.20;;;0.70;99.90;;;;;;6126676;23;20400;-79
2021/01/25 07:39:24;;;;;;;18.00;16.40;;;0.70;99.90;;;;;;6129682;23;20393;-79
2021/01/25 07:41:50;;;;;;;20.03;18.23;;;0.80;99.90;;;;;;6125342;23;20428;-79
2021/01/25 07:44:17;;;;;;;20.00;18.07;;;0.70;99.90;;;;;;6125149;23;20773;-79
2021/01/25 07:46:46;;;;;;;19.03;17.43;;;0.70;99.90;;;;;;6125937;23;20398;-80
2021/01/25 07:49:13;;;;;;;19.17;17.40;;;0.70;99.90;;;;;;6124671;23;20421;-79
2021/01/25 07:51:40;;;;;;;18.97;17.33;;;0.70;99.90;;;;;;6125510;23;20436;-80
2021/01/25 07:54:14;;;;;;;19.83;17.97;;;0.70;99.90;;;;;;6125799;23;20413;-79
2021/01/25 07:56:41;;;;;;;19.57;17.77;;;0.80;99.90;;;;;;6124501;23;20413;-79
2021/01/25 07:59:09;;;;;;;18.80;17.33;;;0.80;99.90;;;;;;6125541;23;20425;-79
2021/01/25 08:01:48;;;;;;;17.70;16.30;;;0.90;99.90;;;;;;6125125;23;20437;-79
2021/01/25 08:04:19;;;;;;;17.30;15.90;;;1.00;99.90;;;;;;6123816;23;20425;-79
2021/01/25 08:06:46;;;;;;;17.73;16.23;;;1.00;99.90;;;;;;6123949;23;20464;-79
2021/01/25 08:09:18;;;;;;;17.97;16.57;;;1.10;99.90;;;;;;6122700;23;20417;-78
2021/01/25 08:11:46;;;;;;;16.50;15.30;;;1.20;99.90;;;;;;6122935;23;20500;-79
2021/01/25 08:14:22;;;;;;;15.70;14.50;;;1.30;99.90;;;;;;6126112;23;20396;-79
2021/01/25 08:16:53;;;;;;;14.93;13.67;;;1.40;99.90;;;;;;6124452;23;20414;-79
2021/01/25 08:19:25;;;;;;;15.90;14.70;;;1.40;99.90;;;;;;6123438;23;20845;-79
2021/01/25 08:21:59;;;;;;;15.60;14.50;;;1.50;99.90;;;;;;6125155;23;20442;-79
2021/01/25 08:24:25;;;;;;;16.53;15.20;;;1.50;99.90;;;;;;6127090;23;20422;-79
2021/01/25 08:26:54;;;;;;;16.63;15.33;;;1.60;99.90;;;;;;6123956;23;20497;-79
2021/01/25 08:29:26;;;;;;;15.53;14.40;;;1.70;99.90;;;;;;6125356;23;20429;-79
2021/01/25 08:31:52;;;;;;;18.13;16.00;;;1.80;99.90;;;;;;6126331;23;20410;-79
2021/01/25 08:34:25;;;;;;;15.37;14.07;;;1.80;99.90;;;;;;6125507;23;20418;-80
2021/01/25 08:37:01;;;;;;;16.10;14.80;;;1.80;99.90;;;;;;6124137;23;20547;-79
2021/01/25 08:39:38;;;;;;;16.07;14.77;;;1.90;99.90;;;;;;6124030;23;20419;-79
2021/01/25 08:42:12;;;;;;;15.10;14.00;;;1.90;99.90;;;;;;6123343;23;20448;-79
2021/01/25 08:44:44;;;;;;;15.10;14.00;;;2.00;99.90;;;;;;6127356;23;20421;-79
2021/01/25 08:47:11;;;;;;;15.37;14.13;;;2.10;99.90;;;;;;6123861;23;20409;-79
2021/01/25 08:49:40;;;;;;;15.40;14.23;;;2.20;99.90;;;;;;6128435;23;20397;-79
2021/01/25 08:52:08;;;;;;;15.50;14.40;;;2.20;99.90;;;;;;6125645;23;20455;-79
2021/01/25 08:54:37;;;;;;;15.67;14.37;;;2.20;99.90;;;;;;6124767;23;20420;-79
2021/01/25 08:57:15;;;;;;;15.83;14.53;;;2.20;99.90;;;;;;6124393;23;20471;-79
2021/01/25 08:59:44;;;;;;;15.90;14.67;;;2.20;99.90;;;;;;6127610;23;20445;-79
2021/01/25 09:02:13;;;;;;;16.53;15.33;;;2.20;99.90;;;;;;6124686;23;20433;-79
2021/01/25 09:04:41;;;;;;;15.37;14.07;;;2.30;99.90;;;;;;6124626;23;20946;-79
2021/01/25 09:07:13;;;;;;;15.70;14.50;;;2.20;99.90;;;;;;6123326;23;20417;-79
2021/01/25 09:09:39;;;;;;;9.13;7.50;;;2.20;99.90;;;;;;6123336;23;20409;-79
2021/01/25 09:12:06;;;;;;;15.77;14.57;;;2.10;99.90;;;;;;6126644;23;20440;-79
2021/01/25 09:14:33;;;;;;;15.67;14.47;;;2.10;99.90;;;;;;6125536;23;20746;-79
2021/01/25 09:17:00;;;;;;;12.03;11.00;;;2.10;99.90;;;;;;6124204;23;20421;-79
2021/01/25 09:19:26;;;;;;;13.63;12.43;;;2.20;99.90;;;;;;6124652;23;20418;-79
2021/01/25 09:21:53;;;;;;;14.57;13.27;;;2.20;99.90;;;;;;6123499;23;20492;-79
2021/01/25 09:24:19;;;;;;;8.87;6.97;;;2.20;99.90;;;;;;6125056;23;20807;-79
2021/01/25 09:26:45;;;;;;;7.93;7.20;;;2.30;99.90;;;;;;6123846;23;20424;-79
2021/01/25 09:29:12;;;;;;;7.67;6.87;;;2.30;99.90;;;;;;6124457;23;20868;-79
2021/01/25 09:31:38;;;;;;;9.23;6.87;;;2.40;99.90;;;;;;6125427;23;20401;-79
2021/01/25 09:34:05;;;;;;;10.80;8.33;;;2.50;99.90;;;;;;6125326;23;20390;-79
2021/01/25 09:36:32;;;;;;;11.30;8.07;;;2.60;99.90;;;;;;6125276;23;20389;-79
2021/01/25 09:38:59;;;;;;;7.97;7.07;;;2.70;99.90;;;;;;6123074;23;20421;-79
2021/01/25 09:41:25;;;;;;;8.57;7.13;;;2.80;99.90;;;;;;6125242;23;20421;-79
2021/01/25 09:43:51;;;;;;;8.57;7.10;;;2.80;99.90;;;;;;6122941;23;20440;-79
2021/01/25 09:46:18;;;;;;;9.47;7.67;;;2.90;99.90;;;;;;6126279;23;20396;-79
2021/01/25 09:48:44;;;;;;;9.67;8.77;;;2.90;99.90;;;;;;6123030;23;20424;-79
2021/01/25 09:51:11;;;;;;;12.03;11.03;;;2.90;99.90;;;;;;6124922;23;20413;-79
2021/01/25 09:53:37;;;;;;;7.43;6.63;;;3.00;99.90;;;;;;6123546;23;20417;-78
2021/01/25 09:56:04;;;;;;;8.63;6.60;;;3.00;99.90;;;;;;6123722;23;20417;-79
2021/01/25 09:58:32;;;;;;;8.60;6.03;;;3.00;99.90;;;;;;6124383;23;20190;-79
2021/01/25 10:00:58;;;;;;;8.63;6.53;;;3.10;99.90;;;;;;6132090;23;20954;-79
2021/01/25 10:03:25;;;;;;;9.10;7.10;;;3.10;99.90;;;;;;6126301;23;20519;-79
2021/01/25 10:05:51;;;;;;;7.90;6.47;;;3.10;99.90;;;;;;6126766;23;20728;-79
2021/01/25 10:08:18;;;;;;;7.40;6.23;;;3.10;99.90;;;;;;6124696;23;20413;-79
2021/01/25 10:10:44;;;;;;;9.70;8.80;;;3.00;99.90;;;;;;6128885;23;20495;-79
2021/01/25 10:13:11;;;;;;;6.30;5.70;;;3.00;99.90;;;;;;6126819;23;20484;-79
2021/01/25 10:15:37;;;;;;;8.13;6.50;;;3.00;99.90;;;;;;6124736;23;20413;-79
2021/01/25 10:18:03;;;;;;;9.80;8.97;;;3.00;99.90;;;;;;6125036;23;20421;-79
2021/01/25 10:20:30;;;;;;;10.90;9.63;;;3.00;99.90;;;;;;6124416;23;20413;-79
2021/01/25 10:22:56;;;;;;;8.27;7.40;;;3.00;99.90;;;;;;6124833;23;20251;-78
2021/01/25 10:25:24;;;;;;;8.83;8.03;;;3.00;99.90;;;;;;6124717;23;20424;-79
2021/01/25 10:27:51;;;;;;;8.10;6.43;;;3.10;99.90;;;;;;6131017;23;20447;-79
2021/01/25 10:30:20;;;;;;;9.40;6.27;;;3.20;99.90;;;;;;6126808;23;20420;-79
2021/01/25 10:32:47;;;;;;;8.93;7.10;;;3.20;99.90;;;;;;6124781;23;20854;-79
2021/01/25 10:35:14;;;;;;;9.37;7.83;;;3.30;99.90;;;;;;6124524;23;20417;-79
2021/01/25 10:37:41;;;;;;;13.13;12.03;;;3.50;99.90;;;;;;6126424;23;20228;-79
2021/01/25 10:40:08;;;;;;;10.53;9.53;;;3.60;99.90;;;;;;6123661;23;20179;-79
2021/01/25 10:42:35;;;;;;;10.07;9.07;;;3.70;99.90;;;;;;6124223;23;20449;-79
2021/01/25 10:45:02;;;;;;;7.57;6.73;;;3.90;99.90;;;;;;6126108;23;20193;-79
2021/01/25 10:47:28;;;;;;;5.87;5.37;;;4.10;99.90;;;;;;6124546;23;20892;-78
2021/01/25 10:49:55;;;;;;;5.93;5.43;;;4.20;99.90;;;;;;6125716;23;20192;-79
2021/01/25 10:52:22;;;;;;;8.53;7.83;;;4.30;99.90;;;;;;6126127;23;20193;-79
2021/01/25 10:54:48;;;;;;;4.00;3.70;;;4.40;99.90;;;;;;6125188;23;20236;-79
2021/01/25 10:57:14;;;;;;;3.77;3.47;;;4.30;99.90;;;;;;6125608;23;20185;-79
2021/01/25 10:59:42;;;;;;;11.83;11.13;;;4.20;99.90;;;;;;6124517;23;20208;-79
2021/01/25 11:02:08;;;;;;;11.77;11.00;;;4.30;99.90;;;;;;6126412;23;20218;-79
2021/01/25 11:04:34;;;;;;;11.20;10.40;;;4.40;99.90;;;;;;6124499;23;20201;-79
2021/01/25 11:07:01;;;;;;;9.10;8.50;;;4.60;99.90;;;;;;6129989;23;20165;-79
2021/01/25 11:09:27;;;;;;;9.60;9.00;;;4.70;99.90;;;;;;6125645;23;20185;-79
2021/01/25 11:11:53;;;;;;;8.63;8.07;;;5.00;99.90;;;;;;6125082;23;20198;-79
2021/01/25 11:14:20;;;;;;;9.77;9.17;;;5.10;99.90;;;;;;6127256;23;20167;-79
2021/01/25 11:16:47;;;;;;;11.00;10.30;;;5.30;99.90;;;;;;6126150;23;20170;-79
2021/01/25 11:19:13;;;;;;;9.70;9.10;;;5.40;99.90;;;;;;6124321;23;20179;-79
2021/01/25 11:21:39;;;;;;;9.20;8.60;;;5.50;99.90;;;;;;6124344;23;20202;-79
2021/01/25 11:24:07;;;;;;;9.60;8.90;;;5.50;99.90;;;;;;6124074;23;20187;-79
2021/01/25 11:26:37;;;;;;;12.20;11.40;;;5.50;99.90;;;;;;6124370;23;20173;-79
2021/01/25 11:29:04;;;;;;;12.47;11.60;;;5.40;99.90;;;;;;6126680;23;20241;-79
2021/01/25 11:31:30;;;;;;;11.70;11.00;;;5.40;99.90;;;;;;6126427;23;20189;-79
2021/01/25 11:33:57;;;;;;;11.20;10.50;;;5.40;99.90;;;;;;6125919;23;20197;-79
2021/01/25 11:36:24;;;;;;;10.87;10.23;;;5.30;99.90;;;;;;6126615;23;20197;-79
2021/01/25 11:38:50;;;;;;;11.90;11.13;;;5.30;99.90;;;;;;6127695;23;20171;-79
2021/01/25 11:41:17;;;;;;;11.30;10.67;;;5.40;99.90;;;;;;6127068;23;20199;-79
2021/01/25 11:43:44;;;;;;;11.30;10.60;;;5.30;99.90;;;;;;6132689;23;20195;-79
2021/01/25 11:46:10;;;;;;;11.70;11.00;;;5.30;99.90;;;;;;6126726;23;20622;-79
2021/01/25 11:48:37;;;;;;;11.63;10.90;;;5.20;99.90;;;;;;6125042;23;20229;-79
2021/01/25 11:51:04;;;;;;;11.63;10.93;;;5.10;99.90;;;;;;6124901;23;20183;-79
2021/01/25 11:53:31;;;;;;;11.70;11.00;;;5.10;99.90;;;;;;6124903;23;20173;-79
2021/01/25 11:55:57;;;;;;;8.17;7.67;;;5.00;99.90;;;;;;6125071;23;20173;-79
2021/01/25 11:58:23;;;;;;;9.03;8.47;;;4.80;99.90;;;;;;6126518;23;20170;-78
2021/01/25 12:00:50;;;;;;;7.57;7.07;;;4.70;99.90;;;;;;6129402;23;20169;-79
2021/01/25 12:03:16;;;;;;;6.47;6.07;;;4.70;99.90;;;;;;6125249;23;20653;-79
2021/01/25 12:05:43;;;;;;;6.63;6.13;;;4.60;99.90;;;;;;6127284;23;20178;-79
2021/01/25 12:08:11;;;;;;;7.13;6.63;;;4.60;99.90;;;;;;6124490;23;20178;-79
2021/01/25 12:10:37;;;;;;;7.80;7.30;;;4.60;99.90;;;;;;6126447;23;20170;-79
2021/01/25 12:13:04;;;;;;;7.07;6.67;;;4.70;99.90;;;;;;6124286;23;20579;-79
2021/01/25 12:15:30;;;;;;;7.60;7.10;;;4.80;99.90;;;;;;6125023;23;20180;-79
2021/01/25 12:17:56;;;;;;;6.57;6.17;;;4.90;99.90;;;;;;6126563;23;20173;-79
2021/01/25 12:20:23;;;;;;;7.37;6.80;;;5.00;99.90;;;;;;6126426;23;20180;-79
2021/01/25 12:22:49;;;;;;;6.60;6.20;;;5.00;99.90;;;;;;6124823;23;20743;-79
2021/01/25 12:25:16;;;;;;;6.00;5.70;;;5.10;99.90;;;;;;6124719;23;20184;-79
2021/01/25 12:27:43;;;;;;;7.20;6.80;;;5.10;99.90;;;;;;6125981;23;20177;-79
2021/01/25 12:30:14;;;;;;;6.70;6.30;;;5.20;99.90;;;;;;6123730;23;20177;-79
2021/01/25 12:32:41;;;;;;;6.23;5.83;;;5.30;99.90;;;;;;6124850;23;20193;-79
2021/01/25 12:35:09;;;;;;;6.70;6.30;;;5.30;99.90;;;;;;6125722;23;20169;-79
2021/01/25 12:37:36;;;;;;;7.10;6.60;;;5.50;99.90;;;;;;6125811;23;20248;-79
2021/01/25 12:40:04;;;;;;;7.37;6.97;;;5.60;99.90;;;;;;6124438;23;20189;-79